createdAt,value
2019-03-16T00:01:33.557Z,83.81
2019-03-16T00:06:28.159Z,83.99
2019-03-16T00:11:22.744Z,83.80
2019-03-16T00:16:17.330Z,83.69
2019-03-16T00:21:11.913Z,83.57
2019-03-16T00:26:06.513Z,83.98
2019-03-16T00:31:01.123Z,83.59
2019-03-16T00:35:55.704Z,83.30
2019-03-16T00:40:50.306Z,82.60
2019-03-16T00:45:44.899Z,81.93
2019-03-16T00:50:39.510Z,81.70
2019-03-16T00:55:34.112Z,80.80
2019-03-16T01:00:28.770Z,80.08
2019-03-16T01:05:23.459Z,79.70
2019-03-16T01:10:18.185Z,78.73
2019-03-16T01:15:14.321Z,78.16
2019-03-16T01:20:11.786Z,78.03
2019-03-16T01:25:09.012Z,77.71
2019-03-16T01:30:04.465Z,77.28
2019-03-16T01:34:59.075Z,77.26
2019-03-16T01:39:53.684Z,77.26
2019-03-16T01:44:48.272Z,76.32
2019-03-16T01:49:42.941Z,75.88
2019-03-16T01:54:37.557Z,75.82
2019-03-16T01:59:32.146Z,75.76
2019-03-16T02:04:26.916Z,75.98
2019-03-16T02:09:21.501Z,75.50
2019-03-16T02:14:16.097Z,75.38
2019-03-16T02:19:10.689Z,75.90
2019-03-16T02:24:05.431Z,75.54
2019-03-16T02:29:00.039Z,76.08
2019-03-16T02:33:54.647Z,76.28
2019-03-16T02:38:49.236Z,75.87
2019-03-16T02:43:43.826Z,75.68
2019-03-16T02:48:38.409Z,75.75
2019-03-16T02:53:32.998Z,75.82
2019-03-16T02:58:27.626Z,75.41
2019-03-16T03:03:29.293Z,75.44
2019-03-16T03:08:18.574Z,75.02
2019-03-16T03:13:14.119Z,75.13
2019-03-16T03:18:09.037Z,74.60
2019-03-16T03:23:03.637Z,74.31
2019-03-16T03:27:58.251Z,74.78
2019-03-16T03:32:52.845Z,74.84
2019-03-16T03:37:47.454Z,74.40
2019-03-16T03:42:42.050Z,74.70
2019-03-16T03:47:36.660Z,74.94
2019-03-16T03:52:31.253Z,74.78
2019-03-16T03:57:25.844Z,74.64
2019-03-16T04:02:20.525Z,74.92
2019-03-16T04:07:19.704Z,74.83
2019-03-16T04:12:11.715Z,75.12
2019-03-16T04:17:06.350Z,75.36
2019-03-16T04:22:01.013Z,75.33
2019-03-16T04:26:55.617Z,75.66
2019-03-16T04:31:50.207Z,75.69
2019-03-16T04:36:44.793Z,75.83
2019-03-16T04:41:39.379Z,76.43
2019-03-16T04:46:33.989Z,76.38
2019-03-16T04:51:28.669Z,76.64
2019-03-16T04:56:23.245Z,76.76
2019-03-16T05:01:17.830Z,76.89
2019-03-16T05:06:12.485Z,77.36
2019-03-16T05:11:07.072Z,77.91
2019-03-16T05:16:01.659Z,78.51
2019-03-16T05:20:56.234Z,78.66
2019-03-16T05:25:50.837Z,78.80
2019-03-16T05:30:45.403Z,79.08
2019-03-16T05:35:39.999Z,78.69
2019-03-16T05:40:34.564Z,78.62
2019-03-16T05:45:29.187Z,78.54
2019-03-16T05:50:23.767Z,78.32
2019-03-16T05:55:18.377Z,78.11
2019-03-16T06:00:17.227Z,78.12
2019-03-16T06:05:11.949Z,77.76
2019-03-16T06:10:12.179Z,77.51
2019-03-16T06:15:10.331Z,76.52
2019-03-16T06:20:14.303Z,75.75
2019-03-16T06:25:10.388Z,74.12
2019-03-16T06:30:10.720Z,73.94
2019-03-16T06:35:06.559Z,74.72
2019-03-16T06:40:01.172Z,74.68
2019-03-16T06:44:55.780Z,75.15
2019-03-16T06:49:50.397Z,74.74
2019-03-16T06:54:44.986Z,74.08
2019-03-16T06:59:39.580Z,72.81
2019-03-16T07:04:34.164Z,72.22
2019-03-16T07:09:28.760Z,71.48
2019-03-16T07:14:23.348Z,70.96
2019-03-16T07:19:17.947Z,70.49
2019-03-16T07:24:12.555Z,70.34
2019-03-16T07:29:07.155Z,69.67
2019-03-16T07:34:01.764Z,69.43
2019-03-16T07:38:56.364Z,68.57
2019-03-16T07:43:50.965Z,68.10
2019-03-16T07:48:45.571Z,68.59
2019-03-16T07:53:40.180Z,68.64
2019-03-16T07:58:34.804Z,68.13
2019-03-16T08:03:29.414Z,67.47
2019-03-16T08:08:24.025Z,66.91
2019-03-16T08:13:18.718Z,67.10
2019-03-16T08:18:13.329Z,66.67
2019-03-16T08:23:07.948Z,65.58
2019-03-16T08:28:02.553Z,65.27
2019-03-16T08:32:57.144Z,64.88
2019-03-16T08:37:51.760Z,65.07
2019-03-16T08:42:46.387Z,62.74
2019-03-16T08:47:40.971Z,62.76
2019-03-16T08:52:35.582Z,61.92
2019-03-16T08:57:30.241Z,62.74
2019-03-16T09:02:24.835Z,63.16
2019-03-16T09:07:19.416Z,62.38
2019-03-16T09:12:14.012Z,61.85
2019-03-16T09:17:09.201Z,60.67
2019-03-16T09:22:04.163Z,61.02
2019-03-16T09:26:58.752Z,60.41
2019-03-16T09:31:53.363Z,61.94
2019-03-16T09:36:47.935Z,60.96
2019-03-16T09:41:42.595Z,60.06
2019-03-16T09:46:37.183Z,57.85
2019-03-16T09:51:31.774Z,57.13
2019-03-16T09:56:26.397Z,57.16
2019-03-16T10:01:21.023Z,56.83
2019-03-16T10:06:15.623Z,55.86
2019-03-16T10:11:10.241Z,55.25
2019-03-16T10:16:04.939Z,56.74
2019-03-16T10:20:59.587Z,56.74
2019-03-16T10:25:54.173Z,55.50
2019-03-16T10:30:48.773Z,53.39
2019-03-16T10:35:43.402Z,54.87
2019-03-16T10:40:38.013Z,53.89
2019-03-16T10:45:32.608Z,52.77
2019-03-16T10:50:27.230Z,53.76
2019-03-16T10:55:21.917Z,54.25
2019-03-16T11:00:18.031Z,54.25
2019-03-16T11:05:13.156Z,54.32
2019-03-16T11:10:11.480Z,54.16
2019-03-16T11:15:12.791Z,53.16
2019-03-16T11:20:16.475Z,54.08
2019-03-16T11:25:11.212Z,53.55
2019-03-16T11:30:15.123Z,52.84
2019-03-16T11:35:11.843Z,51.88
2019-03-16T11:40:15.839Z,50.80
2019-03-16T11:45:12.757Z,50.15
2019-03-16T11:50:10.785Z,49.16
2019-03-16T11:55:09.826Z,49.71
2019-03-16T12:00:08.162Z,49.67
2019-03-16T12:05:02.771Z,47.88
2019-03-16T12:09:57.381Z,47.80
2019-03-16T12:14:51.952Z,47.29
2019-03-16T12:19:46.557Z,46.86
2019-03-16T12:24:41.180Z,45.84
2019-03-16T12:29:35.759Z,44.25
2019-03-16T12:34:30.361Z,45.08
2019-03-16T12:39:24.959Z,44.11
2019-03-16T12:44:19.565Z,43.76
2019-03-16T12:49:14.178Z,42.40
2019-03-16T12:54:08.766Z,42.28
2019-03-16T12:59:10.495Z,42.45
2019-03-16T13:03:59.717Z,41.83
2019-03-16T13:08:54.301Z,40.90
2019-03-16T13:13:49.011Z,41.05
2019-03-16T13:18:43.603Z,40.44
2019-03-16T13:23:38.217Z,39.57
2019-03-16T13:28:35.623Z,40.44
2019-03-16T13:33:29.167Z,39.50
2019-03-16T13:38:23.767Z,38.93
2019-03-16T13:43:18.389Z,38.56
2019-03-16T13:48:12.976Z,38.93
2019-03-16T13:53:07.584Z,39.08
2019-03-16T13:58:02.176Z,38.89
2019-03-16T14:02:56.794Z,38.49
2019-03-16T14:07:51.408Z,37.60
2019-03-16T14:12:46.282Z,37.71
2019-03-16T14:17:40.868Z,36.01
2019-03-16T14:22:35.466Z,36.43
2019-03-16T14:27:30.080Z,34.25
2019-03-16T14:32:24.682Z,34.66
2019-03-16T14:37:19.287Z,33.80
2019-03-16T14:42:13.886Z,33.11
2019-03-16T14:47:08.479Z,33.79
2019-03-16T14:52:03.451Z,33.00
2019-03-16T14:56:58.053Z,31.48
2019-03-16T15:01:52.726Z,30.73
2019-03-16T15:06:47.401Z,31.02
2019-03-16T15:11:41.992Z,30.97
2019-03-16T15:16:36.583Z,31.16
2019-03-16T15:21:31.184Z,31.83
2019-03-16T15:26:25.792Z,32.12
2019-03-16T15:31:22.714Z,31.43
2019-03-16T15:36:16.780Z,31.66
2019-03-16T15:41:11.399Z,32.48
2019-03-16T15:46:06.056Z,32.99
2019-03-16T15:51:00.665Z,31.43
2019-03-16T15:55:55.268Z,31.13
2019-03-16T16:01:02.691Z,31.76
2019-03-16T16:05:46.425Z,32.45
2019-03-16T16:10:41.057Z,33.37
2019-03-16T16:15:35.667Z,33.91
2019-03-16T16:20:30.268Z,35.00
2019-03-16T16:25:24.845Z,35.55
2019-03-16T16:30:23.017Z,36.83
2019-03-16T16:35:17.866Z,37.73
2019-03-16T16:40:20.604Z,38.62
2019-03-16T16:45:19.807Z,39.12
2019-03-16T16:50:23.940Z,39.88
2019-03-16T16:55:18.612Z,40.42
2019-03-16T17:00:17.549Z,41.38
2019-03-16T17:05:12.335Z,42.19
2019-03-16T17:10:11.532Z,43.39
2019-03-16T17:15:10.311Z,44.88
2019-03-16T17:20:08.378Z,45.62
2019-03-16T17:25:02.984Z,46.90
2019-03-16T17:29:57.611Z,47.28
2019-03-16T17:34:52.197Z,47.92
2019-03-16T17:39:46.818Z,48.90
2019-03-16T17:44:41.450Z,49.65
2019-03-16T17:49:36.047Z,50.58
2019-03-16T17:54:30.666Z,51.40
2019-03-16T17:59:25.285Z,51.36
2019-03-16T18:04:19.974Z,51.63
2019-03-16T18:09:14.583Z,52.35
2019-03-16T18:14:09.266Z,53.98
2019-03-16T18:19:03.936Z,55.30
2019-03-16T18:23:58.530Z,56.35
2019-03-16T18:28:53.126Z,56.89
2019-03-16T18:33:47.722Z,58.14
2019-03-16T18:38:42.321Z,58.71
2019-03-16T18:43:36.939Z,59.57
2019-03-16T18:48:31.546Z,60.16
2019-03-16T18:53:26.173Z,60.60
2019-03-16T18:58:20.972Z,61.33
2019-03-16T19:03:15.544Z,62.17
2019-03-16T19:08:10.148Z,62.85
2019-03-16T19:13:04.816Z,64.06
2019-03-16T19:17:59.615Z,64.22
2019-03-16T19:22:54.238Z,64.17
2019-03-16T19:27:48.890Z,64.36
2019-03-16T19:32:43.853Z,64.75
2019-03-16T19:37:38.423Z,63.84
2019-03-16T19:42:33.044Z,64.07
2019-03-16T19:47:27.653Z,65.23
2019-03-16T19:52:22.256Z,65.41
2019-03-16T19:57:16.870Z,66.25
2019-03-16T20:02:11.457Z,65.44
2019-03-16T20:07:18.480Z,58.97
2019-03-16T20:12:02.529Z,56.77
2019-03-16T20:16:57.143Z,61.14
2019-03-16T20:21:51.819Z,62.37
2019-03-16T20:26:47.306Z,64.70
2019-03-16T20:31:46.726Z,66.49
2019-03-16T20:36:38.250Z,67.43
2019-03-16T20:41:36.506Z,68.94
2019-03-16T20:46:29.182Z,68.29
2019-03-16T20:51:23.768Z,68.67
2019-03-16T20:56:18.367Z,68.84
2019-03-16T21:01:13.147Z,69.12
2019-03-16T21:06:07.810Z,70.67
2019-03-16T21:11:02.398Z,69.27
2019-03-16T21:15:56.984Z,67.76
2019-03-16T21:20:51.598Z,69.63
2019-03-16T21:25:46.188Z,69.10
2019-03-16T21:30:40.809Z,69.39
2019-03-16T21:35:35.416Z,68.96
2019-03-16T21:40:30.016Z,66.39
2019-03-16T21:45:24.624Z,68.49
2019-03-16T21:50:19.293Z,69.41
2019-03-16T21:55:15.194Z,70.07
2019-03-16T22:00:18.534Z,68.73
2019-03-16T22:05:13.723Z,69.22
2019-03-16T22:10:12.552Z,69.20
2019-03-16T22:15:13.367Z,70.44
2019-03-16T22:20:12.549Z,71.83
2019-03-16T22:25:09.567Z,72.87
2019-03-16T22:30:09.604Z,73.46
2019-03-16T22:35:05.115Z,73.75
2019-03-16T22:39:59.715Z,73.61
2019-03-16T22:44:54.321Z,74.75
2019-03-16T22:49:48.923Z,75.00
2019-03-16T22:54:43.534Z,75.07
2019-03-16T22:59:38.127Z,75.44
2019-03-16T23:04:32.696Z,75.88
2019-03-16T23:09:27.306Z,75.49
2019-03-16T23:14:21.917Z,75.79
2019-03-16T23:19:16.518Z,76.35
2019-03-16T23:24:11.111Z,76.33
2019-03-16T23:29:05.775Z,76.53
2019-03-16T23:34:00.363Z,76.69
2019-03-16T23:38:54.991Z,76.24
2019-03-16T23:43:49.594Z,76.12
2019-03-16T23:48:44.319Z,76.95
2019-03-16T23:53:38.911Z,76.83
2019-03-16T23:58:33.509Z,76.96
